Time;durP1;ratioP1;P1;durP2;ratioP2;P2;SDS_P1;SDS_P2;PMS_P1;PMS_P2;Temp;Humidity;BMP_temperature;BMP_pressure;BME280_temperature;BME280_humidity;BME280_pressure;Samples;Min_cycle;Max_cycle;Signal;HPM_P1;HPM_P2
2021/06/24 00:01:23;;;;;;;16.65;11.27;;;;;;;27.21;55.71;99567.09;5071452;28;20028;-77
2021/06/24 00:03:48;;;;;;;19.15;11.77;;;;;;;27.75;55.93;99657.44;5071285;28;20408;-76
2021/06/24 00:06:13;;;;;;;15.27;11.15;;;;;;;26.88;55.89;99525.38;5071375;28;20409;-76
2021/06/24 00:08:39;;;;;;;23.95;12.63;;;;;;;27.08;56.11;99559.63;5071449;28;20046;-76
2021/06/24 00:11:06;;;;;;;22.88;11.45;;;;;;;27.62;56.32;99647.25;5071197;28;20485;-76
2021/06/24 00:13:33;;;;;;;16.92;11.48;;;;;;;27.19;56.43;99582.84;5070962;28;20020;-76
2021/06/24 00:15:59;;;;;;;18.80;11.27;;;;;;;27.04;56.65;99574.84;5071169;28;20036;-76
2021/06/24 00:18:24;;;;;;;17.45;10.88;;;;;;;27.52;56.58;99642.72;5071049;28;20074;-77
2021/06/24 00:20:50;;;;;;;21.83;11.55;;;;;;;27.42;56.59;99632.75;5070927;28;20028;-76
2021/06/24 00:23:18;;;;;;;20.45;12.35;;;;;;;27.53;56.55;99647.06;5071091;28;20031;-76
2021/06/24 00:25:44;;;;;;;16.30;11.20;;;;;;;27.36;56.76;99624.97;5071050;28;20516;-76
2021/06/24 00:28:14;;;;;;;21.60;10.93;;;;;;;27.17;56.49;99595.06;5071136;28;20560;-76
2021/06/24 00:30:41;;;;;;;21.07;10.97;;;;;;;27.20;56.63;99597.19;5071284;28;20096;-76
2021/06/24 00:33:06;;;;;;;19.08;11.65;;;;;;;26.81;56.36;99524.09;5069829;28;20048;-77
2021/06/24 00:35:32;;;;;;;13.93;10.35;;;;;;;27.50;56.18;99650.34;5073907;28;20024;-77
2021/06/24 00:37:57;;;;;;;17.08;11.27;;;;;;;27.40;56.47;99631.44;5073161;28;20457;-77
2021/06/24 00:40:23;;;;;;;15.55;10.75;;;;;;;27.45;56.45;99648.47;5075096;28;20024;-77
2021/06/24 00:42:50;;;;;;;18.73;10.80;;;;;;;27.45;56.57;99644.94;5074987;28;20030;-77
2021/06/24 00:45:16;;;;;;;16.10;11.02;;;;;;;27.14;56.50;99598.34;5075111;28;20035;-77
2021/06/24 00:47:42;;;;;;;16.00;11.25;;;;;;;27.39;56.25;99624.38;5074662;28;20017;-77
2021/06/24 00:50:10;;;;;;;19.15;11.23;;;;;;;27.50;56.53;99642.19;5073231;28;20063;-77
2021/06/24 00:52:35;;;;;;;22.38;11.20;;;;;;;27.49;56.53;99641.38;5074691;28;20489;-77
2021/06/24 00:55:01;;;;;;;19.00;10.82;;;;;;;27.50;56.69;99631.34;5074583;28;20020;-77
2021/06/24 00:57:28;;;;;;;18.20;11.18;;;;;;;27.51;56.55;99628.34;5074558;28;20028;-77
2021/06/24 00:59:55;;;;;;;16.58;10.88;;;;;;;27.15;56.36;99567.44;5073100;28;20031;-77
2021/06/24 01:02:20;;;;;;;19.73;11.77;;;;;;;27.53;56.55;99639.72;5074228;28;20020;-77
2021/06/24 01:04:46;;;;;;;18.98;11.55;;;;;;;27.55;56.39;99636.72;5073023;28;20416;-77
2021/06/24 01:07:11;;;;;;;20.48;11.38;;;;;;;27.58;56.49;99638.84;5074377;28;20103;-76
2021/06/24 01:09:37;;;;;;;23.30;12.68;;;;;;;27.17;56.40;99566.03;5074392;28;20028;-77
2021/06/24 01:12:04;;;;;;;15.15;11.00;;;;;;;27.32;56.42;99596.81;5074079;28;20024;-77
2021/06/24 01:14:29;;;;;;;20.05;10.88;;;;;;;26.76;56.50;99499.78;5072633;28;20016;-77
2021/06/24 01:16:55;;;;;;;18.90;12.05;;;;;;;26.86;56.61;99529.47;5074087;28;20039;-77
2021/06/24 01:19:21;;;;;;;18.02;11.55;;;;;;;27.57;56.65;99617.44;5072793;28;20109;-77
2021/06/24 01:21:47;;;;;;;15.23;10.93;;;;;;;27.56;56.65;99610.41;5074212;28;20543;-77
2021/06/24 01:24:14;;;;;;;17.10;10.98;;;;;;;27.26;56.69;99571.66;5074188;28;20028;-77
2021/06/24 01:26:41;;;;;;;16.17;12.07;;;;;;;27.09;56.40;99555.84;5073985;28;20107;-77
2021/06/24 01:29:08;;;;;;;15.13;11.00;;;;;;;27.09;56.49;99563.16;5074259;28;20021;-76
2021/06/24 01:31:34;;;;;;;17.73;10.68;;;;;;;27.50;56.30;99610.47;5074197;28;20047;-76
2021/06/24 01:34:00;;;;;;;18.92;11.77;;;;;;;27.10;56.43;99534.94;5072757;28;20513;-77
2021/06/24 01:36:27;;;;;;;18.20;11.40;;;;;;;27.42;56.42;99600.22;5074025;28;20021;-76
2021/06/24 01:38:53;;;;;;;17.50;10.60;;;;;;;27.46;56.45;99614.00;5073725;28;20048;-77
2021/06/24 01:41:18;;;;;;;15.88;10.77;;;;;;;27.28;56.56;99593.84;5073839;28;20056;-76
2021/06/24 01:43:45;;;;;;;18.65;10.90;;;;;;;27.24;56.62;99579.25;5073682;28;20107;-77
2021/06/24 01:46:11;;;;;;;21.13;11.30;;;;;;;27.40;56.63;99607.03;5073560;28;20016;-77
2021/06/24 01:48:39;;;;;;;14.77;10.40;;;;;;;27.04;56.46;99564.00;5071129;28;20463;-77
2021/06/24 01:51:04;;;;;;;17.75;10.90;;;;;;;27.35;56.73;99609.78;5073298;28;20020;-77
2021/06/24 01:53:30;;;;;;;18.88;10.75;;;;;;;27.18;56.56;99583.94;5073504;28;20031;-77
2021/06/24 01:55:56;;;;;;;20.48;11.48;;;;;;;27.15;56.61;99587.22;5073382;28;20027;-76
2021/06/24 01:58:24;;;;;;;13.88;10.13;;;;;;;27.20;56.81;99608.03;5073695;28;20024;-77
2021/06/24 02:00:52;;;;;;;16.83;11.20;;;;;;;27.14;57.06;99599.16;5072256;28;20410;-77
2021/06/24 02:03:19;;;;;;;14.00;9.75;;;;;;;26.70;57.02;99533.38;5073237;28;20025;-77
2021/06/24 02:05:48;;;;;;;16.17;10.40;;;;;;;27.09;56.98;99601.09;5072110;28;20039;-77
2021/06/24 02:08:22;;;;;;;20.10;11.23;;;;;;;26.67;57.13;99539.38;5073396;28;20020;-77
2021/06/24 02:10:48;;;;;;;17.08;11.38;;;;;;;27.00;57.45;99595.47;5073312;28;20037;-77
2021/06/24 02:13:13;;;;;;;16.73;10.57;;;;;;;26.60;57.61;99545.09;5072975;28;20417;-76
2021/06/24 02:15:39;;;;;;;16.20;10.52;;;;;;;26.70;57.41;99566.69;5073155;28;20028;-75
2021/06/24 02:18:05;;;;;;;16.70;10.50;;;;;;;26.60;57.53;99543.22;5073011;28;20585;-76
2021/06/24 02:20:31;;;;;;;16.83;11.25;;;;;;;26.85;57.68;99584.75;5071745;28;20028;-76
2021/06/24 02:22:56;;;;;;;15.95;10.82;;;;;;;26.27;57.97;99501.47;5071545;28;20486;-77
2021/06/24 02:25:22;;;;;;;18.35;10.35;;;;;;;26.54;57.91;99552.47;5072967;28;20062;-76
2021/06/24 02:27:47;;;;;;;19.38;11.07;;;;;;;26.86;57.93;99602.63;5072817;28;20485;-76
2021/06/24 02:30:14;;;;;;;20.23;11.65;;;;;;;26.55;58.54;99554.09;5071503;28;20024;-77
2021/06/24 02:32:40;;;;;;;18.25;11.38;;;;;;;26.30;59.17;99535.28;5071545;28;20027;-76
2021/06/24 02:35:08;;;;;;;19.83;11.10;;;;;;;26.56;59.02;99582.78;5073107;28;20025;-76
2021/06/24 02:37:34;;;;;;;12.57;10.05;;;;;;;26.29;59.04;99542.59;5072580;28;20020;-76
2021/06/24 02:40:00;;;;;;;15.57;10.88;;;;;;;26.28;58.89;99542.88;5072576;28;20025;-77
2021/06/24 02:42:25;;;;;;;20.20;10.90;;;;;;;26.63;58.87;99587.06;5072518;28;20488;-76
2021/06/24 02:44:51;;;;;;;18.80;10.25;;;;;;;26.32;58.91;99548.53;5072491;28;20036;-76
2021/06/24 02:47:16;;;;;;;24.65;11.05;;;;;;;26.56;58.95;99581.97;5072572;28;20032;-77
2021/06/24 02:49:42;;;;;;;16.17;9.95;;;;;;;26.15;58.70;99519.16;5071205;28;20025;-76
2021/06/24 02:52:08;;;;;;;16.25;9.85;;;;;;;26.42;58.59;99564.75;5072525;28;20500;-76
2021/06/24 02:54:33;;;;;;;23.85;10.40;;;;;;;26.38;58.62;99561.00;5072408;28;20020;-77
2021/06/24 02:56:59;;;;;;;18.88;10.57;;;;;;;26.62;58.66;99580.84;5072227;28;20020;-76
2021/06/24 02:59:26;;;;;;;15.27;10.20;;;;;;;26.35;58.36;99546.13;5071929;28;20058;-77
2021/06/24 03:01:52;;;;;;;17.73;10.30;;;;;;;26.64;58.25;99594.09;5072102;28;20116;-76
2021/06/24 03:04:22;;;;;;;14.07;10.40;;;;;;;26.62;58.04;99596.28;5072013;28;20103;-76
2021/06/24 03:06:52;;;;;;;15.38;10.40;;;;;;;26.62;57.86;99586.25;5072174;28;20107;-78
2021/06/24 03:09:18;;;;;;;18.38;10.27;;;;;;;26.60;58.18;99588.44;5072036;28;20036;-77
2021/06/24 03:11:44;;;;;;;18.85;10.77;;;;;;;26.46;58.19;99573.94;5070673;28;20032;-76
2021/06/24 03:14:09;;;;;;;18.90;10.90;;;;;;;26.40;58.33;99565.03;5070549;28;20027;-77
2021/06/24 03:16:35;;;;;;;20.05;10.75;;;;;;;26.29;58.07;99550.72;5072116;28;20025;-76
2021/06/24 03:19:01;;;;;;;18.35;10.55;;;;;;;26.48;58.07;99567.13;5070750;28;20020;-77
2021/06/24 03:21:26;;;;;;;21.27;11.00;;;;;;;26.15;57.99;99527.28;5070524;28;20036;-76
2021/06/24 03:23:52;;;;;;;21.23;10.93;;;;;;;26.26;58.10;99526.13;5071746;28;20025;-77
2021/06/24 03:26:17;;;;;;;19.58;10.60;;;;;;;25.92;58.26;99480.84;5071651;28;20031;-76
2021/06/24 03:28:43;;;;;;;19.48;11.02;;;;;;;26.42;58.24;99573.69;5071901;28;20504;-76
2021/06/24 03:31:09;;;;;;;18.50;11.63;;;;;;;26.43;58.19;99569.88;5072008;28;20020;-77
2021/06/24 03:33:34;;;;;;;17.88;10.10;;;;;;;25.80;58.37;99491.22;5071731;28;20044;-76
2021/06/24 03:36:00;;;;;;;19.17;11.50;;;;;;;26.05;58.27;99540.88;5071766;28;20103;-76
2021/06/24 03:38:25;;;;;;;19.10;11.63;;;;;;;26.23;58.60;99580.81;5071612;28;20032;-76
2021/06/24 03:40:51;;;;;;;21.08;11.30;;;;;;;26.02;58.96;99587.44;5071444;28;20020;-77
2021/06/24 03:43:16;;;;;;;19.77;12.23;;;;;;;25.61;59.16;99531.56;5070302;28;20552;-75
2021/06/24 03:45:42;;;;;;;19.95;11.68;;;;;;;26.03;59.32;99592.56;5071780;28;20020;-77
2021/06/24 03:48:08;;;;;;;19.55;11.68;;;;;;;25.83;59.40;99549.34;5071586;28;20103;-75
2021/06/24 03:50:34;;;;;;;19.35;12.15;;;;;;;25.78;59.00;99530.44;5070153;28;20027;-75
2021/06/24 03:53:00;;;;;;;22.67;12.05;;;;;;;25.92;59.13;99559.31;5071236;28;20021;-75
2021/06/24 03:55:40;;;;;;;27.40;13.57;;;;;;;25.61;59.29;99522.66;5071335;28;20089;-77
2021/06/24 03:58:07;;;;;;;20.05;12.82;;;;;;;26.11;59.41;99607.41;5071467;28;20078;-76
2021/06/24 04:00:34;;;;;;;24.98;12.77;;;;;;;25.93;59.41;99596.09;5071567;28;20507;-75
2021/06/24 04:03:00;;;;;;;19.30;12.20;;;;;;;25.64;59.36;99543.72;5071531;28;20021;-77
2021/06/24 04:05:28;;;;;;;17.98;11.45;;;;;;;25.66;59.68;99571.31;5071396;28;20035;-77
2021/06/24 04:07:53;;;;;;;21.60;12.40;;;;;;;25.90;59.69;99615.59;5071422;28;20520;-76
2021/06/24 04:10:18;;;;;;;27.05;11.70;;;;;;;25.96;59.43;99608.25;5071485;28;20024;-76
2021/06/24 04:12:44;;;;;;;23.60;12.27;;;;;;;25.72;59.76;99564.81;5077449;28;20024;-77
2021/06/24 04:15:10;;;;;;;18.33;11.40;;;;;;;26.01;59.61;99600.16;5078030;28;20028;-76
2021/06/24 04:17:35;;;;;;;19.75;11.25;;;;;;;25.68;59.16;99527.78;5076540;28;20024;-76
2021/06/24 04:20:00;;;;;;;22.35;12.52;;;;;;;26.25;58.98;99628.16;5077765;28;20583;-77
2021/06/24 04:22:26;;;;;;;21.50;11.98;;;;;;;26.34;59.04;99620.28;5077678;28;20137;-76
2021/06/24 04:24:51;;;;;;;16.88;11.93;;;;;;;26.35;59.05;99618.41;5077557;28;20035;-76
2021/06/24 04:27:17;;;;;;;19.98;12.10;;;;;;;26.27;58.70;99581.88;5077968;28;20031;-76
2021/06/24 04:29:42;;;;;;;18.33;12.27;;;;;;;26.47;58.03;99599.91;5077782;28;20024;-76
2021/06/24 04:32:08;;;;;;;18.85;12.30;;;;;;;26.59;57.89;99614.72;5077812;28;20025;-77
2021/06/24 04:34:33;;;;;;;14.77;11.68;;;;;;;26.37;58.04;99584.53;5076175;28;20028;-76
2021/06/24 04:36:59;;;;;;;20.95;12.25;;;;;;;26.77;57.87;99631.41;5077460;28;20117;-77
2021/06/24 04:39:24;;;;;;;19.48;12.55;;;;;;;26.36;57.92;99566.69;5077513;28;20021;-76
2021/06/24 04:41:50;;;;;;;19.63;11.48;;;;;;;25.16;57.87;99356.88;5076341;28;20028;-77
2021/06/24 04:44:15;;;;;;;18.85;11.73;;;;;;;26.75;57.59;99598.34;5077567;28;20617;-76
2021/06/24 04:46:41;;;;;;;19.63;12.55;;;;;;;26.84;57.53;99602.91;5077799;28;20542;-77
2021/06/24 04:49:06;;;;;;;23.52;12.25;;;;;;;26.56;57.46;99550.28;5077659;28;20024;-76
2021/06/24 04:51:32;;;;;;;26.55;13.02;;;;;;;26.77;57.35;99588.06;5077452;28;20027;-76
2021/06/24 04:53:57;;;;;;;18.48;11.27;;;;;;;27.10;56.97;99627.91;5076393;28;20058;-76
2021/06/24 04:56:22;;;;;;;21.70;11.65;;;;;;;27.16;56.60;99644.94;5076136;28;20493;-77
2021/06/24 04:58:48;;;;;;;23.45;11.90;;;;;;;27.12;56.18;99633.88;5075584;28;20021;-76
2021/06/24 05:01:13;;;;;;;16.65;10.63;;;;;;;27.15;56.06;99640.63;5077020;28;20020;-77
2021/06/24 05:03:39;;;;;;;19.48;11.23;;;;;;;27.07;56.05;99620.34;5076580;28;20024;-76
2021/06/24 05:06:07;;;;;;;20.13;11.10;;;;;;;27.34;55.82;99649.66;5076438;28;20210;-77
2021/06/24 05:08:34;;;;;;;19.15;11.10;;;;;;;27.17;55.53;99609.41;5076340;28;20046;-75
2021/06/24 05:11:00;;;;;;;24.08;11.32;;;;;;;27.17;55.60;99604.00;5082556;28;20020;-76
2021/06/24 05:13:25;;;;;;;23.02;10.65;;;;;;;27.26;55.23;99631.28;5080709;28;20024;-76
2021/06/24 05:15:51;;;;;;;25.05;10.45;;;;;;;26.87;54.79;99555.47;5078128;28;20033;-76
2021/06/24 05:18:17;;;;;;;25.13;10.30;;;;;;;27.57;54.49;99656.22;5076043;28;20153;-76
2021/06/24 05:20:44;;;;;;;25.15;10.75;;;;;;;27.22;54.20;99595.00;5078111;28;20130;-76
2021/06/24 05:23:12;;;;;;;21.65;10.35;;;;;;;27.64;53.77;99667.59;5092604;28;20088;-76
2021/06/24 05:25:39;;;;;;;23.27;10.82;;;;;;;27.63;53.48;99654.31;5091827;28;20032;-76
2021/06/24 05:28:05;;;;;;;23.70;10.27;;;;;;;27.10;53.61;99581.84;5090558;28;20020;-76
2021/06/24 05:30:31;;;;;;;20.67;11.38;;;;;;;27.64;53.60;99661.34;5090611;28;20020;-76
2021/06/24 05:32:56;;;;;;;29.15;12.20;;;;;;;27.41;53.51;99642.00;5090297;28;22128;-76
2021/06/24 05:35:21;;;;;;;24.20;10.73;;;;;;;27.62;53.38;99664.34;5085421;28;20104;-76
2021/06/24 05:37:47;;;;;;;20.88;10.63;;;;;;;27.41;53.11;99646.59;5072803;28;20032;-76
2021/06/24 05:40:13;;;;;;;22.83;10.38;;;;;;;27.66;53.04;99689.81;5075044;28;20043;-76
2021/06/24 05:42:38;;;;;;;23.08;11.27;;;;;;;27.62;53.46;99680.63;5079622;28;20029;-76
2021/06/24 05:45:05;;;;;;;22.50;11.15;;;;;;;27.04;53.55;99582.97;5071902;28;20063;-77
2021/06/24 05:47:30;;;;;;;25.40;16.13;;;;;;;27.29;53.88;99617.16;5088023;28;20469;-76
2021/06/24 05:49:56;;;;;;;33.13;15.75;;;;;;;27.73;54.21;99695.69;5081560;28;20115;-76
2021/06/24 05:52:21;;;;;;;23.02;17.00;;;;;;;27.53;54.35;99653.28;5076550;28;20108;-76
2021/06/24 05:54:46;;;;;;;25.40;16.83;;;;;;;27.20;54.52;99606.13;5088869;28;20093;-76
2021/06/24 05:57:12;;;;;;;20.38;15.75;;;;;;;27.44;55.10;99646.84;5090813;28;20412;-77
2021/06/24 05:59:37;;;;;;;23.45;14.02;;;;;;;27.42;55.06;99632.75;5090366;28;20028;-77
2021/06/24 06:02:03;;;;;;;27.13;15.73;;;;;;;27.65;55.44;99658.34;5089768;28;20081;-76
2021/06/24 06:04:28;;;;;;;25.05;16.35;;;;;;;27.40;55.65;99626.00;5089595;28;20032;-77
2021/06/24 06:06:54;;;;;;;27.08;17.98;;;;;;;27.53;55.52;99628.06;5091831;28;20024;-77
2021/06/24 06:09:19;;;;;;;17.73;14.40;;;;;;;27.82;54.77;99664.13;5091668;28;20024;-77
2021/06/24 06:11:45;;;;;;;24.88;14.50;;;;;;;27.89;54.58;99657.53;5085587;28;20024;-76
2021/06/24 06:14:11;;;;;;;19.77;15.02;;;;;;;27.82;54.18;99628.03;5085725;28;20016;-76
2021/06/24 06:16:37;;;;;;;24.95;14.82;;;;;;;27.84;54.24;99640.22;5085567;28;20099;-75
2021/06/24 06:19:03;;;;;;;24.48;13.35;;;;;;;28.27;53.96;99686.44;5093216;28;20074;-75
2021/06/24 06:21:30;;;;;;;23.10;13.90;;;;;;;28.02;53.47;99646.78;5090482;28;20028;-76
2021/06/24 06:23:57;;;;;;;22.58;12.55;;;;;;;28.34;53.42;99708.63;5073171;28;20125;-74
2021/06/24 06:26:24;;;;;;;21.92;13.63;;;;;;;27.99;53.26;99633.00;5083448;28;20028;-75
2021/06/24 06:28:51;;;;;;;21.70;12.27;;;;;;;28.00;53.15;99624.56;5093218;28;20059;-75
2021/06/24 06:31:17;;;;;;;22.60;14.98;;;;;;;28.42;52.43;99666.41;5082580;28;20024;-73
2021/06/24 06:33:42;;;;;;;25.83;12.93;;;;;;;28.46;52.28;99657.41;5074622;28;20024;-75
2021/06/24 06:36:08;;;;;;;21.73;13.98;;;;;;;28.26;51.91;99624.28;5073582;28;20091;-75
2021/06/24 06:38:33;;;;;;;24.88;12.15;;;;;;;28.61;52.24;99669.94;5071792;28;20025;-77
2021/06/24 06:40:59;;;;;;;23.70;11.23;;;;;;;28.40;51.37;99633.31;5082752;28;20079;-77
2021/06/24 06:43:24;;;;;;;17.75;10.27;;;;;;;28.35;51.25;99627.97;5082079;28;20522;-77
2021/06/24 06:45:50;;;;;;;23.27;10.88;;;;;;;28.38;51.19;99632.81;5082229;28;20031;-75
2021/06/24 06:48:15;;;;;;;28.02;11.43;;;;;;;28.52;50.99;99639.13;5085413;28;20024;-79
2021/06/24 06:50:41;;;;;;;21.27;9.88;;;;;;;28.81;50.93;99690.56;5079065;28;20099;-77
2021/06/24 06:53:07;;;;;;;24.95;11.27;;;;;;;28.34;50.53;99607.31;5080467;28;20043;-76
2021/06/24 06:55:34;;;;;;;25.35;10.90;;;;;;;28.82;50.60;99684.03;5069725;28;20485;-76
2021/06/24 06:58:00;;;;;;;22.85;11.43;;;;;;;28.95;50.44;99690.66;5079622;28;20024;-76
2021/06/24 07:00:28;;;;;;;24.00;11.00;;;;;;;28.84;50.58;99671.00;5071198;28;20034;-75
2021/06/24 07:02:53;;;;;;;24.67;10.95;;;;;;;28.81;50.26;99644.38;5071996;28;20021;-76
2021/06/24 07:05:19;;;;;;;27.40;11.20;;;;;;;29.08;49.85;99690.75;5083741;28;20086;-75
2021/06/24 07:07:44;;;;;;;22.50;9.85;;;;;;;29.08;49.98;99673.63;5071799;28;20021;-75
2021/06/24 07:10:10;;;;;;;21.10;9.80;;;;;;;29.19;49.53;99671.53;5071610;28;20017;-76
2021/06/24 07:12:35;;;;;;;23.27;9.75;;;;;;;29.25;49.89;99678.50;5071773;28;20024;-76
2021/06/24 07:15:01;;;;;;;25.27;10.55;;;;;;;29.35;49.94;99676.44;5071713;28;20021;-76
2021/06/24 07:17:27;;;;;;;20.42;10.45;;;;;;;29.42;49.73;99673.31;5071665;28;20052;-75
2021/06/24 07:19:52;;;;;;;23.77;10.38;;;;;;;29.47;49.56;99673.25;5071854;28;20020;-75
2021/06/24 07:22:18;;;;;;;28.05;11.15;;;;;;;29.28;49.19;99624.34;5071490;28;20484;-75
2021/06/24 07:24:43;;;;;;;29.65;11.73;;;;;;;29.67;49.19;99686.47;5071514;28;20063;-76
2021/06/24 07:27:09;;;;;;;27.90;11.23;;;;;;;29.40;49.25;99632.81;5071597;28;20150;-76
2021/06/24 07:29:34;;;;;;;23.40;13.40;;;;;;;29.55;49.26;99644.56;5071455;28;20036;-76
2021/06/24 07:32:00;;;;;;;22.45;9.75;;;;;;;29.66;48.88;99665.81;5071516;28;20028;-76
2021/06/24 07:34:25;;;;;;;23.25;10.15;;;;;;;29.58;47.95;99643.94;5071669;28;20030;-76
2021/06/24 07:36:51;;;;;;;24.55;10.82;;;;;;;29.68;48.05;99663.59;5071599;28;20028;-76
2021/06/24 07:39:17;;;;;;;26.98;10.52;;;;;;;29.62;47.29;99648.47;5071311;28;20027;-76
2021/06/24 07:41:42;;;;;;;24.92;10.48;;;;;;;29.66;47.41;99633.16;5078368;28;20431;-76
2021/06/24 07:44:07;;;;;;;25.67;10.55;;;;;;;29.63;47.07;99606.56;5090990;28;20032;-76
2021/06/24 07:46:33;;;;;;;25.63;9.68;;;;;;;29.95;46.58;99651.13;5089446;28;20024;-76
2021/06/24 07:48:59;;;;;;;22.83;9.80;;;;;;;30.17;46.14;99664.06;5090568;28;20031;-76
2021/06/24 07:51:24;;;;;;;26.27;9.93;;;;;;;30.32;46.41;99685.53;5090573;28;20485;-76
2021/06/24 07:53:49;;;;;;;25.75;9.73;;;;;;;30.31;46.27;99682.00;5085802;28;20024;-76
2021/06/24 07:56:15;;;;;;;22.38;9.95;;;;;;;30.37;46.40;99677.25;5070612;28;20029;-76
2021/06/24 07:58:41;;;;;;;23.63;9.95;;;;;;;30.35;45.84;99655.75;5069692;28;20013;-76
2021/06/24 08:01:08;;;;;;;22.27;10.48;;;;;;;30.17;45.51;99607.66;5070463;28;20084;-76
2021/06/24 08:03:37;;;;;;;27.20;10.18;;;;;;;30.71;45.53;99678.72;5070229;28;20104;-75
2021/06/24 08:06:04;;;;;;;23.88;10.63;;;;;;;30.38;45.40;99610.75;5069990;28;20099;-76
2021/06/24 08:08:30;;;;;;;33.08;10.90;;;;;;;30.84;45.13;99680.59;5068627;28;20044;-76
2021/06/24 08:10:56;;;;;;;29.33;11.18;;;;;;;30.65;44.98;99643.41;5069950;28;20116;-76
2021/06/24 08:13:23;;;;;;;25.60;10.40;;;;;;;30.95;44.87;99681.97;5068847;28;20067;-76
2021/06/24 08:15:51;;;;;;;23.17;9.93;;;;;;;31.03;44.77;99677.69;5069959;28;20477;-75
2021/06/24 08:18:16;;;;;;;32.10;10.38;;;;;;;31.11;44.33;99683.19;5068834;28;20070;-76
2021/06/24 08:20:42;;;;;;;18.27;9.45;;;;;;;31.16;44.18;99682.31;5070804;28;20021;-76
2021/06/24 08:23:08;;;;;;;25.15;9.93;;;;;;;30.90;44.16;99643.91;5070794;28;20464;-75
2021/06/24 08:25:34;;;;;;;27.42;12.10;;;;;;;31.20;44.22;99670.44;5069719;28;20024;-75
2021/06/24 08:28:00;;;;;;;26.60;11.55;;;;;;;31.07;44.38;99638.56;5070939;28;20040;-78
2021/06/24 08:30:26;;;;;;;26.15;12.63;;;;;;;31.44;43.72;99672.88;5068331;28;20089;-76
2021/06/24 08:32:51;;;;;;;29.20;12.23;;;;;;;31.36;44.31;99649.06;5071003;28;20107;-76
2021/06/24 08:35:17;;;;;;;22.95;10.48;;;;;;;31.66;43.79;99669.28;5070766;28;20085;-75
2021/06/24 08:37:43;;;;;;;24.90;10.75;;;;;;;31.74;43.29;99665.00;5070768;28;20096;-74
2021/06/24 08:40:10;;;;;;;28.02;10.77;;;;;;;31.28;43.03;99576.97;5069307;28;20016;-77
2021/06/24 08:42:37;;;;;;;24.98;11.70;;;;;;;31.89;42.58;99648.19;5070647;28;20028;-76
2021/06/24 08:45:06;;;;;;;25.45;12.07;;;;;;;31.98;42.66;99642.78;5070657;28;20063;-76
2021/06/24 08:47:32;;;;;;;28.13;14.35;;;;;;;32.10;42.23;99645.69;5070811;28;20024;-76
2021/06/24 08:49:59;;;;;;;42.47;20.70;;;;;;;31.81;42.17;99581.50;5070922;28;20067;-77
2021/06/24 08:52:25;;;;;;;28.52;12.30;;;;;;;32.16;41.91;99628.84;5070684;28;20044;-74
2021/06/24 08:54:50;;;;;;;59.17;26.52;;;;;;;32.25;41.51;99636.28;5070922;28;20055;-77
2021/06/24 08:57:16;;;;;;;32.22;15.13;;;;;;;32.28;41.40;99638.38;5071263;28;20021;-76
2021/06/24 08:59:43;;;;;;;29.88;11.65;;;;;;;32.17;41.31;99592.19;5074330;28;20566;-76
2021/06/24 09:02:12;;;;;;;72.78;32.40;;;;;;;32.60;40.90;99639.84;5074315;28;20413;-76
2021/06/24 09:04:40;;;;;;;26.65;13.52;;;;;;;32.40;40.73;99589.34;5074204;28;20103;-76
2021/06/24 09:07:11;;;;;;;53.15;26.15;;;;;;;32.71;40.54;99620.06;5074195;28;20025;-76
2021/06/24 09:09:37;;;;;;;30.48;13.20;;;;;;;32.44;40.08;99558.31;5074449;28;20413;-75
2021/06/24 09:12:08;;;;;;;22.23;9.93;;;;;;;33.15;39.65;99649.00;5074256;28;20028;-77
2021/06/24 09:14:38;;;;;;;24.10;10.02;;;;;;;32.81;39.29;99606.09;5074277;28;20032;-76
2021/06/24 09:17:04;;;;;;;33.42;10.80;;;;;;;32.75;39.61;99585.50;5074262;28;20389;-76
2021/06/24 09:19:30;;;;;;;20.27;9.38;;;;;;;32.77;38.92;99583.25;5073316;28;20020;-77
2021/06/24 09:21:56;;;;;;;25.15;9.70;;;;;;;33.30;38.73;99644.16;5072875;28;20599;-76
2021/06/24 09:24:33;;;;;;;25.67;9.52;;;;;;;33.40;38.57;99644.59;5073828;28;20029;-76
2021/06/24 09:27:03;;;;;;;29.40;11.13;;;;;;;33.60;38.56;99640.38;5073821;28;20406;-76
2021/06/24 09:29:28;;;;;;;23.77;8.50;;;;;;;33.36;38.18;99580.69;5074104;28;20032;-77
2021/06/24 09:31:56;;;;;;;28.42;10.57;;;;;;;33.95;37.67;99634.75;5073785;28;20028;-76
2021/06/24 09:34:22;;;;;;;19.60;9.45;;;;;;;34.07;37.15;99624.69;5073927;28;20016;-76
2021/06/24 09:36:51;;;;;;;21.17;8.77;;;;;;;33.93;37.43;99565.78;5073544;28;20035;-76
2021/06/24 09:39:21;;;;;;;23.48;8.95;;;;;;;34.54;36.39;99624.53;5073594;28;20038;-76
2021/06/24 09:42:11;;;;;;;23.20;9.68;;;;;;;34.36;35.58;99563.56;5073635;28;20024;-76
2021/06/24 09:44:41;;;;;;;27.30;9.57;;;;;;;34.69;35.87;99626.66;5073434;28;20032;-76
2021/06/24 09:47:21;;;;;;;27.70;9.57;;;;;;;34.87;35.43;99621.84;5072150;28;20496;-76
2021/06/24 09:50:04;;;;;;;22.70;8.52;;;;;;;34.97;35.11;99621.47;5072096;28;20115;-76
2021/06/24 09:52:31;;;;;;;28.27;9.02;;;;;;;34.98;35.36;99625.81;5071958;28;20413;-76
2021/06/24 09:55:07;;;;;;;27.88;9.20;;;;;;;34.91;35.22;99572.59;5072168;28;20040;-76
2021/06/24 09:57:32;;;;;;;19.52;8.55;;;;;;;35.27;34.85;99594.66;5089189;28;20043;-76
2021/06/24 10:00:18;;;;;;;22.40;8.35;;;;;;;35.35;34.67;99601.22;5092475;28;20027;-76
2021/06/24 10:03:22;;;;;;;23.00;8.80;;;;;;;35.24;34.59;99611.00;5093469;28;20031;-76
2021/06/24 10:05:48;;;;;;;19.30;8.18;;;;;;;35.26;34.54;99586.75;5034585;28;20060;-76
2021/06/24 10:08:14;;;;;;;24.17;8.60;;;;;;;34.93;34.69;99551.94;5050934;28;20029;-76
2021/06/24 10:10:42;;;;;;;26.83;8.60;;;;;;;35.09;34.31;99578.72;5070342;28;20032;-76
2021/06/24 10:13:10;;;;;;;21.88;8.10;;;;;;;35.26;34.03;99564.78;5091950;28;20135;-76
2021/06/24 10:15:36;;;;;;;20.45;9.15;;;;;;;35.28;33.98;99546.84;5093167;28;20104;-76
2021/06/24 10:18:03;;;;;;;19.52;8.90;;;;;;;35.92;33.85;99603.88;5093222;28;20015;-76
2021/06/24 10:20:30;;;;;;;20.67;9.20;;;;;;;36.14;33.67;99604.53;5092925;28;20020;-74
2021/06/24 10:23:15;;;;;;;20.33;7.70;;;;;;;36.34;32.96;99609.09;5091479;28;20027;-76
2021/06/24 10:25:43;;;;;;;20.55;8.32;;;;;;;36.56;32.63;99597.59;5093237;28;20036;-82
2021/06/24 10:28:10;;;;;;;20.60;8.50;;;;;;;36.56;32.91;99575.56;5092997;28;20524;-82
2021/06/24 10:30:41;;;;;;;18.85;8.13;;;;;;;36.89;31.98;99596.53;5092754;28;20117;-82
2021/06/24 10:33:11;;;;;;;25.60;10.50;;;;;;;36.95;32.02;99600.63;5092845;28;20519;-82
2021/06/24 10:35:39;;;;;;;23.20;8.13;;;;;;;36.67;31.60;99544.81;5093104;28;20448;-83
2021/06/24 10:38:07;;;;;;;15.82;6.93;;;;;;;36.97;31.11;99573.56;5092835;28;20373;-83
2021/06/24 10:40:38;;;;;;;15.48;7.53;;;;;;;37.26;31.39;99599.13;5092415;28;20032;-82
2021/06/24 10:43:03;;;;;;;25.40;8.57;;;;;;;37.45;30.75;99591.75;5091169;28;20412;-83
2021/06/24 10:45:30;;;;;;;16.60;6.65;;;;;;;37.60;30.13;99584.63;5091304;28;20038;-81
2021/06/24 10:47:56;;;;;;;19.05;6.93;;;;;;;37.19;29.73;99530.88;5092508;28;20020;-82
2021/06/24 10:50:31;;;;;;;16.08;7.70;;;;;;;37.73;29.40;99593.59;5092459;28;20024;-83
2021/06/24 10:53:06;;;;;;;19.20;7.63;;;;;;;37.75;29.34;99575.56;5092639;28;20533;-82
2021/06/24 10:55:34;;;;;;;17.45;7.32;;;;;;;37.99;29.33;99579.25;5092253;28;20148;-82
2021/06/24 10:58:00;;;;;;;15.15;6.32;;;;;;;38.23;29.13;99570.75;5091980;28;20028;-82
2021/06/24 11:00:42;;;;;;;14.95;6.38;;;;;;;38.18;28.38;99557.25;5092259;28;20059;-82
2021/06/24 11:03:10;;;;;;;16.33;6.97;;;;;;;38.12;27.55;99531.09;5092269;28;20519;-82
2021/06/24 11:05:42;;;;;;;16.70;6.97;;;;;;;38.50;27.28;99574.44;5092977;28;20020;-82
2021/06/24 11:08:13;;;;;;;14.63;6.47;;;;;;;38.06;27.68;99502.22;5092931;28;20393;-83
2021/06/24 11:10:55;;;;;;;17.13;5.63;;;;;;;38.73;27.79;99577.31;5091983;28;20077;-82
2021/06/24 11:13:36;;;;;;;14.68;6.75;;;;;;;38.81;26.59;99565.22;5092149;28;20024;-84
2021/06/24 11:16:24;;;;;;;15.52;6.20;;;;;;;38.90;26.86;99576.03;5092123;28;20081;-83
2021/06/24 11:19:00;;;;;;;18.45;7.18;;;;;;;38.96;26.60;99547.75;5085541;28;20072;-84